sensor_id;sensor_type;location;lat;lon;timestamp;P1;durP1;ratioP1;P2;durP2;ratioP2
76953;SDS011;65893;51.698;-0.292;2024-03-02T00:02:18;5.10;;;0.95;;
76953;SDS011;65893;51.698;-0.292;2024-03-02T00:04:44;4.55;;;1.00;;
76953;SDS011;65893;51.698;-0.292;2024-03-02T00:07:12;3.83;;;0.93;;
76953;SDS011;65893;51.698;-0.292;2024-03-02T00:09:40;3.25;;;0.80;;
76953;SDS011;65893;51.698;-0.292;2024-03-02T00:12:06;3.08;;;0.70;;
76953;SDS011;65893;51.698;-0.292;2024-03-02T00:14:32;1.90;;;0.70;;
76953;SDS011;65893;51.698;-0.292;2024-03-02T00:16:58;9.07;;;0.70;;
76953;SDS011;65893;51.698;-0.292;2024-03-02T00:19:24;2.90;;;0.80;;
76953;SDS011;65893;51.698;-0.292;2024-03-02T00:21:50;2.33;;;0.60;;
76953;SDS011;65893;51.698;-0.292;2024-03-02T00:26:53;4.93;;;0.70;;
76953;SDS011;65893;51.698;-0.292;2024-03-02T00:29:19;2.55;;;0.77;;
76953;SDS011;65893;51.698;-0.292;2024-03-02T00:31:46;2.30;;;0.60;;
76953;SDS011;65893;51.698;-0.292;2024-03-02T00:34:13;1.90;;;0.60;;
76953;SDS011;65893;51.698;-0.292;2024-03-02T00:36:41;8.35;;;1.15;;
76953;SDS011;65893;51.698;-0.292;2024-03-02T00:39:07;3.28;;;0.55;;
76953;SDS011;65893;51.698;-0.292;2024-03-02T00:41:33;3.10;;;0.80;;
76953;SDS011;65893;51.698;-0.292;2024-03-02T00:44:04;2.85;;;0.63;;
76953;SDS011;65893;51.698;-0.292;2024-03-02T00:46:37;8.98;;;1.33;;
76953;SDS011;65893;51.698;-0.292;2024-03-02T00:49:04;7.95;;;1.00;;
76953;SDS011;65893;51.698;-0.292;2024-03-02T00:51:31;5.35;;;0.88;;
76953;SDS011;65893;51.698;-0.292;2024-03-02T00:54:01;3.60;;;1.27;;
76953;SDS011;65893;51.698;-0.292;2024-03-02T00:56:29;3.80;;;0.95;;
76953;SDS011;65893;51.698;-0.292;2024-03-02T00:58:55;4.82;;;1.27;;
76953;SDS011;65893;51.698;-0.292;2024-03-02T01:01:21;4.55;;;0.98;;
76953;SDS011;65893;51.698;-0.292;2024-03-02T01:03:47;5.85;;;1.20;;
76953;SDS011;65893;51.698;-0.292;2024-03-02T01:06:17;3.63;;;0.85;;
76953;SDS011;65893;51.698;-0.292;2024-03-02T01:08:43;9.43;;;1.13;;
76953;SDS011;65893;51.698;-0.292;2024-03-02T01:11:09;1.75;;;0.65;;
76953;SDS011;65893;51.698;-0.292;2024-03-02T01:13:35;4.00;;;1.60;;
76953;SDS011;65893;51.698;-0.292;2024-03-02T01:16:01;4.00;;;0.70;;
76953;SDS011;65893;51.698;-0.292;2024-03-02T01:18:28;3.90;;;1.27;;
76953;SDS011;65893;51.698;-0.292;2024-03-02T01:20:54;6.63;;;0.85;;
76953;SDS011;65893;51.698;-0.292;2024-03-02T01:23:24;5.50;;;1.30;;
76953;SDS011;65893;51.698;-0.292;2024-03-02T01:25:50;3.95;;;0.82;;
76953;SDS011;65893;51.698;-0.292;2024-03-02T01:28:17;9.30;;;1.15;;
76953;SDS011;65893;51.698;-0.292;2024-03-02T01:30:44;3.35;;;0.73;;
76953;SDS011;65893;51.698;-0.292;2024-03-02T01:33:10;1.77;;;0.70;;
76953;SDS011;65893;51.698;-0.292;2024-03-02T01:35:36;6.70;;;0.85;;
76953;SDS011;65893;51.698;-0.292;2024-03-02T01:38:02;3.42;;;0.82;;
76953;SDS011;65893;51.698;-0.292;2024-03-02T01:40:28;4.40;;;0.60;;
76953;SDS011;65893;51.698;-0.292;2024-03-02T01:42:55;7.72;;;1.00;;
76953;SDS011;65893;51.698;-0.292;2024-03-02T01:45:23;3.75;;;0.70;;
76953;SDS011;65893;51.698;-0.292;2024-03-02T01:47:49;6.75;;;1.98;;
76953;SDS011;65893;51.698;-0.292;2024-03-02T01:50:15;8.68;;;1.25;;
76953;SDS011;65893;51.698;-0.292;2024-03-02T01:52:42;7.30;;;0.93;;
76953;SDS011;65893;51.698;-0.292;2024-03-02T01:55:09;6.30;;;1.33;;
76953;SDS011;65893;51.698;-0.292;2024-03-02T01:57:35;6.38;;;1.58;;
76953;SDS011;65893;51.698;-0.292;2024-03-02T02:00:01;9.13;;;1.15;;
76953;SDS011;65893;51.698;-0.292;2024-03-02T02:02:28;7.72;;;1.42;;
76953;SDS011;65893;51.698;-0.292;2024-03-02T02:04:54;2.60;;;1.02;;
76953;SDS011;65893;51.698;-0.292;2024-03-02T02:07:20;3.05;;;0.85;;
76953;SDS011;65893;51.698;-0.292;2024-03-02T02:09:46;2.00;;;0.85;;
76953;SDS011;65893;51.698;-0.292;2024-03-02T02:12:12;1.90;;;0.60;;
76953;SDS011;65893;51.698;-0.292;2024-03-02T02:14:38;5.72;;;0.52;;
76953;SDS011;65893;51.698;-0.292;2024-03-02T02:17:08;0.60;;;0.30;;
76953;SDS011;65893;51.698;-0.292;2024-03-02T02:19:34;2.13;;;0.28;;
76953;SDS011;65893;51.698;-0.292;2024-03-02T02:22:00;3.22;;;0.55;;
76953;SDS011;65893;51.698;-0.292;2024-03-02T02:24:26;3.28;;;0.63;;
76953;SDS011;65893;51.698;-0.292;2024-03-02T02:26:52;4.50;;;0.85;;
76953;SDS011;65893;51.698;-0.292;2024-03-02T02:29:18;0.55;;;0.30;;
76953;SDS011;65893;51.698;-0.292;2024-03-02T02:31:44;4.07;;;0.50;;
76953;SDS011;65893;51.698;-0.292;2024-03-02T02:34:10;4.75;;;0.70;;
76953;SDS011;65893;51.698;-0.292;2024-03-02T02:36:37;0.32;;;0.17;;
76953;SDS011;65893;51.698;-0.292;2024-03-02T02:39:04;1.58;;;0.55;;
76953;SDS011;65893;51.698;-0.292;2024-03-02T02:41:31;1.75;;;0.40;;
76953;SDS011;65893;51.698;-0.292;2024-03-02T02:43:58;2.67;;;0.38;;
76953;SDS011;65893;51.698;-0.292;2024-03-02T02:46:24;4.05;;;0.70;;
76953;SDS011;65893;51.698;-0.292;2024-03-02T02:48:50;3.28;;;0.50;;
76953;SDS011;65893;51.698;-0.292;2024-03-02T02:51:18;1.92;;;0.47;;
76953;SDS011;65893;51.698;-0.292;2024-03-02T02:53:44;0.95;;;0.40;;
76953;SDS011;65893;51.698;-0.292;2024-03-02T02:56:10;1.83;;;0.30;;
76953;SDS011;65893;51.698;-0.292;2024-03-02T02:58:36;0.73;;;0.50;;
76953;SDS011;65893;51.698;-0.292;2024-03-02T03:01:02;2.63;;;0.60;;
76953;SDS011;65893;51.698;-0.292;2024-03-02T03:03:28;1.90;;;0.40;;
76953;SDS011;65893;51.698;-0.292;2024-03-02T03:05:55;2.25;;;0.70;;
76953;SDS011;65893;51.698;-0.292;2024-03-02T03:08:21;2.55;;;0.70;;
76953;SDS011;65893;51.698;-0.292;2024-03-02T03:10:48;4.60;;;0.55;;
76953;SDS011;65893;51.698;-0.292;2024-03-02T03:13:14;2.83;;;0.80;;
76953;SDS011;65893;51.698;-0.292;2024-03-02T03:15:40;2.70;;;0.98;;
76953;SDS011;65893;51.698;-0.292;2024-03-02T03:18:06;3.55;;;0.82;;
76953;SDS011;65893;51.698;-0.292;2024-03-02T03:20:33;2.00;;;0.30;;
76953;SDS011;65893;51.698;-0.292;2024-03-02T03:22:59;3.90;;;0.57;;
76953;SDS011;65893;51.698;-0.292;2024-03-02T03:25:25;3.00;;;0.75;;
76953;SDS011;65893;51.698;-0.292;2024-03-02T03:27:51;0.77;;;0.38;;
76953;SDS011;65893;51.698;-0.292;2024-03-02T03:30:20;1.98;;;0.55;;
76953;SDS011;65893;51.698;-0.292;2024-03-02T03:32:46;5.57;;;0.88;;
76953;SDS011;65893;51.698;-0.292;2024-03-02T03:35:13;4.90;;;0.70;;
76953;SDS011;65893;51.698;-0.292;2024-03-02T03:37:41;1.95;;;0.50;;
76953;SDS011;65893;51.698;-0.292;2024-03-02T03:40:07;4.78;;;1.00;;
76953;SDS011;65893;51.698;-0.292;2024-03-02T03:42:36;8.23;;;1.10;;
76953;SDS011;65893;51.698;-0.292;2024-03-02T03:45:03;5.00;;;1.00;;
76953;SDS011;65893;51.698;-0.292;2024-03-02T03:47:30;5.75;;;1.08;;
76953;SDS011;65893;51.698;-0.292;2024-03-02T03:49:56;9.27;;;1.10;;
76953;SDS011;65893;51.698;-0.292;2024-03-02T03:52:22;7.38;;;1.88;;
76953;SDS011;65893;51.698;-0.292;2024-03-02T03:54:48;7.43;;;1.40;;
76953;SDS011;65893;51.698;-0.292;2024-03-02T03:57:15;4.25;;;1.30;;
76953;SDS011;65893;51.698;-0.292;2024-03-02T03:59:41;7.55;;;1.10;;
76953;SDS011;65893;51.698;-0.292;2024-03-02T04:02:07;9.65;;;1.52;;
76953;SDS011;65893;51.698;-0.292;2024-03-02T04:04:34;4.88;;;1.20;;
76953;SDS011;65893;51.698;-0.292;2024-03-02T04:07:00;8.38;;;1.20;;
76953;SDS011;65893;51.698;-0.292;2024-03-02T04:09:26;6.65;;;1.33;;
76953;SDS011;65893;51.698;-0.292;2024-03-02T04:11:52;6.03;;;1.13;;
76953;SDS011;65893;51.698;-0.292;2024-03-02T04:14:19;13.18;;;2.25;;
76953;SDS011;65893;51.698;-0.292;2024-03-02T04:16:45;11.85;;;2.38;;
76953;SDS011;65893;51.698;-0.292;2024-03-02T04:19:11;8.90;;;1.98;;
76953;SDS011;65893;51.698;-0.292;2024-03-02T04:21:37;7.15;;;1.50;;
76953;SDS011;65893;51.698;-0.292;2024-03-02T04:24:03;4.22;;;1.25;;
76953;SDS011;65893;51.698;-0.292;2024-03-02T04:26:29;11.88;;;1.48;;
76953;SDS011;65893;51.698;-0.292;2024-03-02T04:28:55;5.63;;;1.35;;
76953;SDS011;65893;51.698;-0.292;2024-03-02T04:31:21;10.63;;;1.20;;
76953;SDS011;65893;51.698;-0.292;2024-03-02T04:33:47;16.38;;;1.50;;
76953;SDS011;65893;51.698;-0.292;2024-03-02T04:36:13;2.90;;;0.98;;
76953;SDS011;65893;51.698;-0.292;2024-03-02T04:38:39;9.70;;;1.35;;
76953;SDS011;65893;51.698;-0.292;2024-03-02T04:41:06;6.88;;;1.60;;
76953;SDS011;65893;51.698;-0.292;2024-03-02T04:43:32;8.95;;;1.40;;
76953;SDS011;65893;51.698;-0.292;2024-03-02T04:45:58;3.63;;;0.90;;
76953;SDS011;65893;51.698;-0.292;2024-03-02T04:48:25;12.75;;;2.03;;
76953;SDS011;65893;51.698;-0.292;2024-03-02T04:50:51;9.00;;;1.55;;
76953;SDS011;65893;51.698;-0.292;2024-03-02T04:53:17;8.40;;;1.13;;
76953;SDS011;65893;51.698;-0.292;2024-03-02T04:55:43;6.15;;;1.17;;
76953;SDS011;65893;51.698;-0.292;2024-03-02T04:58:09;8.52;;;1.65;;
76953;SDS011;65893;51.698;-0.292;2024-03-02T05:00:35;3.47;;;1.20;;
76953;SDS011;65893;51.698;-0.292;2024-03-02T05:03:01;18.38;;;1.83;;
76953;SDS011;65893;51.698;-0.292;2024-03-02T05:05:27;8.93;;;1.98;;
76953;SDS011;65893;51.698;-0.292;2024-03-02T05:07:53;6.25;;;1.45;;
76953;SDS011;65893;51.698;-0.292;2024-03-02T05:10:19;10.10;;;1.70;;
76953;SDS011;65893;51.698;-0.292;2024-03-02T05:12:46;9.85;;;1.45;;
76953;SDS011;65893;51.698;-0.292;2024-03-02T05:15:12;7.20;;;1.58;;
76953;SDS011;65893;51.698;-0.292;2024-03-02T05:17:39;6.82;;;1.02;;
76953;SDS011;65893;51.698;-0.292;2024-03-02T05:20:05;8.98;;;1.55;;
76953;SDS011;65893;51.698;-0.292;2024-03-02T05:22:33;14.25;;;2.22;;
76953;SDS011;65893;51.698;-0.292;2024-03-02T05:24:59;9.77;;;1.35;;
76953;SDS011;65893;51.698;-0.292;2024-03-02T05:27:26;10.73;;;1.55;;
76953;SDS011;65893;51.698;-0.292;2024-03-02T05:29:52;11.85;;;2.55;;
76953;SDS011;65893;51.698;-0.292;2024-03-02T05:32:18;11.57;;;1.75;;
76953;SDS011;65893;51.698;-0.292;2024-03-02T05:34:44;8.13;;;1.90;;
76953;SDS011;65893;51.698;-0.292;2024-03-02T05:37:10;7.43;;;2.30;;
76953;SDS011;65893;51.698;-0.292;2024-03-02T05:39:36;8.48;;;1.77;;
76953;SDS011;65893;51.698;-0.292;2024-03-02T05:42:02;13.82;;;2.10;;
76953;SDS011;65893;51.698;-0.292;2024-03-02T05:44:28;12.10;;;1.70;;
76953;SDS011;65893;51.698;-0.292;2024-03-02T05:46:54;4.78;;;1.60;;
76953;SDS011;65893;51.698;-0.292;2024-03-02T05:49:20;11.43;;;1.88;;
76953;SDS011;65893;51.698;-0.292;2024-03-02T05:51:46;9.68;;;1.33;;
76953;SDS011;65893;51.698;-0.292;2024-03-02T05:54:12;7.93;;;1.17;;
76953;SDS011;65893;51.698;-0.292;2024-03-02T05:56:38;6.97;;;1.23;;
76953;SDS011;65893;51.698;-0.292;2024-03-02T05:59:04;11.48;;;1.52;;
76953;SDS011;65893;51.698;-0.292;2024-03-02T06:01:38;5.88;;;1.10;;
76953;SDS011;65893;51.698;-0.292;2024-03-02T06:04:04;9.07;;;1.52;;
76953;SDS011;65893;51.698;-0.292;2024-03-02T06:06:30;8.88;;;1.38;;
76953;SDS011;65893;51.698;-0.292;2024-03-02T06:08:57;12.07;;;1.40;;
76953;SDS011;65893;51.698;-0.292;2024-03-02T06:11:23;12.82;;;1.40;;
76953;SDS011;65893;51.698;-0.292;2024-03-02T06:13:49;8.90;;;1.60;;
76953;SDS011;65893;51.698;-0.292;2024-03-02T06:16:15;8.23;;;1.17;;
76953;SDS011;65893;51.698;-0.292;2024-03-02T06:18:41;6.97;;;1.70;;
76953;SDS011;65893;51.698;-0.292;2024-03-02T06:21:07;10.75;;;2.10;;
76953;SDS011;65893;51.698;-0.292;2024-03-02T06:23:33;8.85;;;1.50;;
76953;SDS011;65893;51.698;-0.292;2024-03-02T06:26:00;9.00;;;1.75;;
76953;SDS011;65893;51.698;-0.292;2024-03-02T06:28:27;12.93;;;1.52;;
76953;SDS011;65893;51.698;-0.292;2024-03-02T06:30:53;13.43;;;2.00;;
76953;SDS011;65893;51.698;-0.292;2024-03-02T06:33:19;6.97;;;1.42;;
76953;SDS011;65893;51.698;-0.292;2024-03-02T06:35:45;7.68;;;1.35;;
76953;SDS011;65893;51.698;-0.292;2024-03-02T06:38:11;13.02;;;2.33;;
76953;SDS011;65893;51.698;-0.292;2024-03-02T06:40:37;4.13;;;1.35;;
76953;SDS011;65893;51.698;-0.292;2024-03-02T06:43:04;7.43;;;1.35;;
76953;SDS011;65893;51.698;-0.292;2024-03-02T06:45:30;8.65;;;1.17;;
76953;SDS011;65893;51.698;-0.292;2024-03-02T06:47:58;3.90;;;1.02;;
76953;SDS011;65893;51.698;-0.292;2024-03-02T06:50:24;5.47;;;1.17;;
76953;SDS011;65893;51.698;-0.292;2024-03-02T06:52:50;3.72;;;0.88;;
76953;SDS011;65893;51.698;-0.292;2024-03-02T06:55:16;4.65;;;0.88;;
76953;SDS011;65893;51.698;-0.292;2024-03-02T06:57:42;4.60;;;0.77;;
76953;SDS011;65893;51.698;-0.292;2024-03-02T07:00:08;3.42;;;0.75;;
76953;SDS011;65893;51.698;-0.292;2024-03-02T07:02:35;4.68;;;1.40;;
76953;SDS011;65893;51.698;-0.292;2024-03-02T07:05:01;9.88;;;1.05;;
76953;SDS011;65893;51.698;-0.292;2024-03-02T07:07:27;4.72;;;1.00;;
76953;SDS011;65893;51.698;-0.292;2024-03-02T07:09:54;4.65;;;1.60;;
76953;SDS011;65893;51.698;-0.292;2024-03-02T07:12:20;9.27;;;1.98;;
76953;SDS011;65893;51.698;-0.292;2024-03-02T07:14:46;8.35;;;2.83;;
76953;SDS011;65893;51.698;-0.292;2024-03-02T07:17:27;9.02;;;1.30;;
76953;SDS011;65893;51.698;-0.292;2024-03-02T07:19:53;11.90;;;1.33;;
76953;SDS011;65893;51.698;-0.292;2024-03-02T07:22:19;14.70;;;1.55;;
76953;SDS011;65893;51.698;-0.292;2024-03-02T07:24:45;8.35;;;1.90;;
76953;SDS011;65893;51.698;-0.292;2024-03-02T07:27:12;12.80;;;2.05;;
76953;SDS011;65893;51.698;-0.292;2024-03-02T07:29:39;9.95;;;1.52;;
76953;SDS011;65893;51.698;-0.292;2024-03-02T07:32:05;12.98;;;1.95;;
76953;SDS011;65893;51.698;-0.292;2024-03-02T07:34:31;6.35;;;0.93;;
76953;SDS011;65893;51.698;-0.292;2024-03-02T07:36:57;9.15;;;1.10;;
76953;SDS011;65893;51.698;-0.292;2024-03-02T07:39:23;12.57;;;1.75;;
76953;SDS011;65893;51.698;-0.292;2024-03-02T07:41:49;7.25;;;1.13;;
76953;SDS011;65893;51.698;-0.292;2024-03-02T07:44:16;4.65;;;1.08;;
76953;SDS011;65893;51.698;-0.292;2024-03-02T07:46:44;8.27;;;1.45;;
76953;SDS011;65893;51.698;-0.292;2024-03-02T07:49:11;6.00;;;1.27;;
76953;SDS011;65893;51.698;-0.292;2024-03-02T07:51:39;4.00;;;0.80;;
76953;SDS011;65893;51.698;-0.292;2024-03-02T07:54:05;4.07;;;0.63;;
76953;SDS011;65893;51.698;-0.292;2024-03-02T07:56:31;6.88;;;1.08;;
76953;SDS011;65893;51.698;-0.292;2024-03-02T07:58:57;6.85;;;1.00;;
76953;SDS011;65893;51.698;-0.292;2024-03-02T08:01:26;7.15;;;1.52;;
76953;SDS011;65893;51.698;-0.292;2024-03-02T08:03:52;3.17;;;0.60;;
76953;SDS011;65893;51.698;-0.292;2024-03-02T08:06:20;8.52;;;0.88;;
76953;SDS011;65893;51.698;-0.292;2024-03-02T08:08:47;9.70;;;1.48;;
76953;SDS011;65893;51.698;-0.292;2024-03-02T08:11:13;7.68;;;1.02;;
76953;SDS011;65893;51.698;-0.292;2024-03-02T08:13:39;7.68;;;1.23;;
76953;SDS011;65893;51.698;-0.292;2024-03-02T08:16:05;7.72;;;1.00;;
76953;SDS011;65893;51.698;-0.292;2024-03-02T08:18:34;3.45;;;0.70;;
76953;SDS011;65893;51.698;-0.292;2024-03-02T08:21:00;3.80;;;0.80;;
76953;SDS011;65893;51.698;-0.292;2024-03-02T08:23:27;4.75;;;0.52;;
76953;SDS011;65893;51.698;-0.292;2024-03-02T08:25:53;2.28;;;0.85;;
76953;SDS011;65893;51.698;-0.292;2024-03-02T08:28:19;4.00;;;0.82;;
76953;SDS011;65893;51.698;-0.292;2024-03-02T08:30:45;4.72;;;0.65;;
76953;SDS011;65893;51.698;-0.292;2024-03-02T08:33:11;3.70;;;0.70;;
76953;SDS011;65893;51.698;-0.292;2024-03-02T08:35:37;2.10;;;0.65;;
76953;SDS011;65893;51.698;-0.292;2024-03-02T08:38:04;6.32;;;0.80;;
76953;SDS011;65893;51.698;-0.292;2024-03-02T08:40:30;2.72;;;0.63;;
76953;SDS011;65893;51.698;-0.292;2024-03-02T08:42:56;1.25;;;0.38;;
76953;SDS011;65893;51.698;-0.292;2024-03-02T08:45:23;3.00;;;0.45;;
76953;SDS011;65893;51.698;-0.292;2024-03-02T08:47:50;2.17;;;0.45;;
76953;SDS011;65893;51.698;-0.292;2024-03-02T08:50:15;0.98;;;0.20;;
76953;SDS011;65893;51.698;-0.292;2024-03-02T08:52:42;2.10;;;0.30;;
76953;SDS011;65893;51.698;-0.292;2024-03-02T08:55:08;1.00;;;0.30;;
76953;SDS011;65893;51.698;-0.292;2024-03-02T08:57:36;1.02;;;0.43;;
76953;SDS011;65893;51.698;-0.292;2024-03-02T09:00:02;0.10;;;0.10;;
76953;SDS011;65893;51.698;-0.292;2024-03-02T09:02:30;0.75;;;0.25;;
76953;SDS011;65893;51.698;-0.292;2024-03-02T09:04:57;1.70;;;0.35;;
76953;SDS011;65893;51.698;-0.292;2024-03-02T09:07:23;0.57;;;0.13;;
76953;SDS011;65893;51.698;-0.292;2024-03-02T09:09:49;4.38;;;0.40;;
76953;SDS011;65893;51.698;-0.292;2024-03-02T09:12:15;0.75;;;0.45;;
76953;SDS011;65893;51.698;-0.292;2024-03-02T09:14:41;2.58;;;0.20;;
76953;SDS011;65893;51.698;-0.292;2024-03-02T09:17:07;0.40;;;0.10;;
76953;SDS011;65893;51.698;-0.292;2024-03-02T09:19:35;0.60;;;0.15;;
76953;SDS011;65893;51.698;-0.292;2024-03-02T09:22:01;0.10;;;0.10;;
76953;SDS011;65893;51.698;-0.292;2024-03-02T09:24:30;1.48;;;0.40;;
76953;SDS011;65893;51.698;-0.292;2024-03-02T09:26:56;2.47;;;0.63;;
76953;SDS011;65893;51.698;-0.292;2024-03-02T09:29:22;0.57;;;0.20;;
76953;SDS011;65893;51.698;-0.292;2024-03-02T09:31:48;0.95;;;0.25;;
76953;SDS011;65893;51.698;-0.292;2024-03-02T09:34:15;0.63;;;0.20;;
76953;SDS011;65893;51.698;-0.292;2024-03-02T09:36:42;1.60;;;0.25;;
76953;SDS011;65893;51.698;-0.292;2024-03-02T09:39:09;6.93;;;0.38;;
76953;SDS011;65893;51.698;-0.292;2024-03-02T09:41:36;0.40;;;0.20;;
76953;SDS011;65893;51.698;-0.292;2024-03-02T09:44:03;1.10;;;0.20;;
76953;SDS011;65893;51.698;-0.292;2024-03-02T09:46:29;0.88;;;0.30;;
76953;SDS011;65893;51.698;-0.292;2024-03-02T09:48:56;1.90;;;0.43;;
76953;SDS011;65893;51.698;-0.292;2024-03-02T09:51:22;2.10;;;0.30;;
76953;SDS011;65893;51.698;-0.292;2024-03-02T09:53:49;2.30;;;0.35;;
76953;SDS011;65893;51.698;-0.292;2024-03-02T09:56:15;7.13;;;0.50;;
76953;SDS011;65893;51.698;-0.292;2024-03-02T09:58:43;1.48;;;0.40;;
76953;SDS011;65893;51.698;-0.292;2024-03-02T10:01:09;5.90;;;0.52;;
76953;SDS011;65893;51.698;-0.292;2024-03-02T10:03:39;2.22;;;0.82;;
76953;SDS011;65893;51.698;-0.292;2024-03-02T10:08:46;1.00;;;0.40;;
76953;SDS011;65893;51.698;-0.292;2024-03-02T10:11:26;0.50;;;0.30;;
76953;SDS011;65893;51.698;-0.292;2024-03-02T10:14:12;1.13;;;0.38;;
76953;SDS011;65893;51.698;-0.292;2024-03-02T10:16:39;0.60;;;0.30;;
76953;SDS011;65893;51.698;-0.292;2024-03-02T10:19:15;0.82;;;0.30;;
76953;SDS011;65893;51.698;-0.292;2024-03-02T10:21:42;0.10;;;0.10;;
76953;SDS011;65893;51.698;-0.292;2024-03-02T10:24:09;0.95;;;0.47;;
76953;SDS011;65893;51.698;-0.292;2024-03-02T10:26:35;0.80;;;0.43;;
76953;SDS011;65893;51.698;-0.292;2024-03-02T10:29:01;1.30;;;0.25;;
76953;SDS011;65893;51.698;-0.292;2024-03-02T10:31:27;1.75;;;0.32;;
76953;SDS011;65893;51.698;-0.292;2024-03-02T10:33:54;2.85;;;0.40;;
76953;SDS011;65893;51.698;-0.292;2024-03-02T10:36:21;0.10;;;0.10;;
76953;SDS011;65893;51.698;-0.292;2024-03-02T10:38:47;2.65;;;0.30;;
76953;SDS011;65893;51.698;-0.292;2024-03-02T10:41:19;0.73;;;0.20;;
76953;SDS011;65893;51.698;-0.292;2024-03-02T10:43:45;1.23;;;0.38;;
76953;SDS011;65893;51.698;-0.292;2024-03-02T10:46:12;3.03;;;0.40;;
76953;SDS011;65893;51.698;-0.292;2024-03-02T10:48:39;1.65;;;0.55;;
76953;SDS011;65893;51.698;-0.292;2024-03-02T10:51:06;1.85;;;0.90;;
76953;SDS011;65893;51.698;-0.292;2024-03-02T10:53:32;1.27;;;0.50;;
76953;SDS011;65893;51.698;-0.292;2024-03-02T10:55:58;0.68;;;0.38;;
76953;SDS011;65893;51.698;-0.292;2024-03-02T10:58:27;0.32;;;0.32;;
76953;SDS011;65893;51.698;-0.292;2024-03-02T11:00:58;2.20;;;0.60;;
76953;SDS011;65893;51.698;-0.292;2024-03-02T11:03:25;0.35;;;0.28;;
76953;SDS011;65893;51.698;-0.292;2024-03-02T11:05:51;4.38;;;0.50;;
76953;SDS011;65893;51.698;-0.292;2024-03-02T11:08:18;1.27;;;0.35;;
76953;SDS011;65893;51.698;-0.292;2024-03-02T11:10:54;2.38;;;0.28;;
76953;SDS011;65893;51.698;-0.292;2024-03-02T11:13:42;1.40;;;0.52;;
76953;SDS011;65893;51.698;-0.292;2024-03-02T11:16:13;2.55;;;0.50;;
76953;SDS011;65893;51.698;-0.292;2024-03-02T11:18:42;0.95;;;0.30;;
76953;SDS011;65893;51.698;-0.292;2024-03-02T11:21:09;0.80;;;0.30;;
76953;SDS011;65893;51.698;-0.292;2024-03-02T11:23:35;1.48;;;0.50;;
76953;SDS011;65893;51.698;-0.292;2024-03-02T11:26:20;0.98;;;0.30;;
76953;SDS011;65893;51.698;-0.292;2024-03-02T11:28:48;2.35;;;0.50;;
76953;SDS011;65893;51.698;-0.292;2024-03-02T11:31:14;1.27;;;0.40;;
76953;SDS011;65893;51.698;-0.292;2024-03-02T11:33:40;1.58;;;0.60;;
76953;SDS011;65893;51.698;-0.292;2024-03-02T11:36:08;1.58;;;0.40;;
76953;SDS011;65893;51.698;-0.292;2024-03-02T11:38:34;0.73;;;0.10;;
76953;SDS011;65893;51.698;-0.292;2024-03-02T11:41:01;0.70;;;0.22;;
76953;SDS011;65893;51.698;-0.292;2024-03-02T11:43:28;0.30;;;0.10;;
76953;SDS011;65893;51.698;-0.292;2024-03-02T11:45:58;2.25;;;0.80;;
76953;SDS011;65893;51.698;-0.292;2024-03-02T11:48:24;0.43;;;0.22;;
76953;SDS011;65893;51.698;-0.292;2024-03-02T11:50:50;1.70;;;0.40;;
76953;SDS011;65893;51.698;-0.292;2024-03-02T11:53:16;1.50;;;0.40;;
76953;SDS011;65893;51.698;-0.292;2024-03-02T11:55:45;0.40;;;0.28;;
76953;SDS011;65893;51.698;-0.292;2024-03-02T11:58:11;0.30;;;0.20;;
76953;SDS011;65893;51.698;-0.292;2024-03-02T12:00:38;0.93;;;0.30;;
76953;SDS011;65893;51.698;-0.292;2024-03-02T12:03:04;0.85;;;0.30;;
76953;SDS011;65893;51.698;-0.292;2024-03-02T12:05:31;0.20;;;0.20;;
76953;SDS011;65893;51.698;-0.292;2024-03-02T12:07:58;1.85;;;0.38;;
76953;SDS011;65893;51.698;-0.292;2024-03-02T12:10:29;1.17;;;0.22;;
76953;SDS011;65893;51.698;-0.292;2024-03-02T12:12:55;0.20;;;0.20;;
76953;SDS011;65893;51.698;-0.292;2024-03-02T12:15:29;0.65;;;0.25;;
76953;SDS011;65893;51.698;-0.292;2024-03-02T12:17:56;2.30;;;0.40;;
76953;SDS011;65893;51.698;-0.292;2024-03-02T12:20:23;0.65;;;0.30;;
76953;SDS011;65893;51.698;-0.292;2024-03-02T12:22:50;2.45;;;1.20;;
76953;SDS011;65893;51.698;-0.292;2024-03-02T12:25:17;2.55;;;0.60;;
76953;SDS011;65893;51.698;-0.292;2024-03-02T12:27:45;0.68;;;0.43;;
76953;SDS011;65893;51.698;-0.292;2024-03-02T12:30:11;2.28;;;0.50;;
76953;SDS011;65893;51.698;-0.292;2024-03-02T12:32:39;0.35;;;0.20;;
76953;SDS011;65893;51.698;-0.292;2024-03-02T12:35:05;1.15;;;0.43;;
76953;SDS011;65893;51.698;-0.292;2024-03-02T12:37:31;1.70;;;0.47;;
76953;SDS011;65893;51.698;-0.292;2024-03-02T12:39:57;1.05;;;0.50;;
76953;SDS011;65893;51.698;-0.292;2024-03-02T12:42:24;0.60;;;0.40;;
76953;SDS011;65893;51.698;-0.292;2024-03-02T12:44:53;1.25;;;0.40;;
76953;SDS011;65893;51.698;-0.292;2024-03-02T12:47:22;1.35;;;0.35;;
76953;SDS011;65893;51.698;-0.292;2024-03-02T12:49:48;0.95;;;0.40;;
76953;SDS011;65893;51.698;-0.292;2024-03-02T12:52:17;1.05;;;0.22;;
76953;SDS011;65893;51.698;-0.292;2024-03-02T12:54:43;2.22;;;0.57;;
76953;SDS011;65893;51.698;-0.292;2024-03-02T12:57:09;1.85;;;0.50;;
76953;SDS011;65893;51.698;-0.292;2024-03-02T12:59:35;1.75;;;0.40;;
76953;SDS011;65893;51.698;-0.292;2024-03-02T13:02:02;0.85;;;0.40;;
76953;SDS011;65893;51.698;-0.292;2024-03-02T13:04:28;0.55;;;0.30;;
76953;SDS011;65893;51.698;-0.292;2024-03-02T13:06:56;0.40;;;0.30;;
76953;SDS011;65893;51.698;-0.292;2024-03-02T13:09:23;0.45;;;0.25;;
76953;SDS011;65893;51.698;-0.292;2024-03-02T13:11:49;5.10;;;0.52;;
76953;SDS011;65893;51.698;-0.292;2024-03-02T13:14:15;2.47;;;0.57;;
76953;SDS011;65893;51.698;-0.292;2024-03-02T13:16:41;0.77;;;0.22;;
76953;SDS011;65893;51.698;-0.292;2024-03-02T13:19:08;1.00;;;0.32;;
76953;SDS011;65893;51.698;-0.292;2024-03-02T13:21:34;3.97;;;0.70;;
76953;SDS011;65893;51.698;-0.292;2024-03-02T13:24:00;5.15;;;0.65;;
76953;SDS011;65893;51.698;-0.292;2024-03-02T13:26:27;2.22;;;0.50;;
76953;SDS011;65893;51.698;-0.292;2024-03-02T13:28:53;0.95;;;0.25;;
76953;SDS011;65893;51.698;-0.292;2024-03-02T13:31:19;2.30;;;0.52;;
76953;SDS011;65893;51.698;-0.292;2024-03-02T13:33:46;4.03;;;0.57;;
76953;SDS011;65893;51.698;-0.292;2024-03-02T13:36:12;1.52;;;0.45;;
76953;SDS011;65893;51.698;-0.292;2024-03-02T13:38:38;2.95;;;0.60;;
76953;SDS011;65893;51.698;-0.292;2024-03-02T13:41:06;2.20;;;0.77;;
76953;SDS011;65893;51.698;-0.292;2024-03-02T13:43:32;0.77;;;0.60;;
76953;SDS011;65893;51.698;-0.292;2024-03-02T13:46:00;2.80;;;0.65;;
76953;SDS011;65893;51.698;-0.292;2024-03-02T13:48:26;1.55;;;0.65;;
76953;SDS011;65893;51.698;-0.292;2024-03-02T13:50:53;3.67;;;1.10;;
76953;SDS011;65893;51.698;-0.292;2024-03-02T13:53:19;2.17;;;0.50;;
76953;SDS011;65893;51.698;-0.292;2024-03-02T13:55:45;1.92;;;0.55;;
76953;SDS011;65893;51.698;-0.292;2024-03-02T13:58:11;1.50;;;0.45;;
76953;SDS011;65893;51.698;-0.292;2024-03-02T14:00:38;1.83;;;0.70;;
76953;SDS011;65893;51.698;-0.292;2024-03-02T14:03:05;3.30;;;1.02;;
76953;SDS011;65893;51.698;-0.292;2024-03-02T14:05:32;1.08;;;0.43;;
76953;SDS011;65893;51.698;-0.292;2024-03-02T14:07:58;1.40;;;0.52;;
76953;SDS011;65893;51.698;-0.292;2024-03-02T14:10:27;2.10;;;0.73;;
76953;SDS011;65893;51.698;-0.292;2024-03-02T14:12:53;3.65;;;0.85;;
76953;SDS011;65893;51.698;-0.292;2024-03-02T14:15:20;0.73;;;0.32;;
76953;SDS011;65893;51.698;-0.292;2024-03-02T14:17:46;1.08;;;0.38;;
76953;SDS011;65893;51.698;-0.292;2024-03-02T14:20:12;1.40;;;0.40;;
76953;SDS011;65893;51.698;-0.292;2024-03-02T14:22:39;1.02;;;0.43;;
76953;SDS011;65893;51.698;-0.292;2024-03-02T14:25:05;1.30;;;0.43;;
76953;SDS011;65893;51.698;-0.292;2024-03-02T14:27:31;1.25;;;0.40;;
76953;SDS011;65893;51.698;-0.292;2024-03-02T14:29:57;1.20;;;0.43;;
76953;SDS011;65893;51.698;-0.292;2024-03-02T14:32:23;1.48;;;0.63;;
76953;SDS011;65893;51.698;-0.292;2024-03-02T14:34:49;1.30;;;0.50;;
76953;SDS011;65893;51.698;-0.292;2024-03-02T14:37:15;1.92;;;0.40;;